sensor_id;sensor_type;location;lat;lon;timestamp;P1;durP1;ratioP1;P2;durP2;ratioP2
5458;SDS011;2752;49.992;8.422;2023-05-10T00:01:39;0.60;;;0.53;;
5458;SDS011;2752;49.992;8.422;2023-05-10T00:04:06;0.80;;;0.60;;
5458;SDS011;2752;49.992;8.422;2023-05-10T00:06:33;0.60;;;0.50;;
5458;SDS011;2752;49.992;8.422;2023-05-10T00:09:01;0.50;;;0.40;;
5458;SDS011;2752;49.992;8.422;2023-05-10T00:11:28;0.50;;;0.43;;
5458;SDS011;2752;49.992;8.422;2023-05-10T00:13:55;0.50;;;0.40;;
5458;SDS011;2752;49.992;8.422;2023-05-10T00:16:21;0.60;;;0.50;;
5458;SDS011;2752;49.992;8.422;2023-05-10T00:18:48;1.47;;;0.60;;
5458;SDS011;2752;49.992;8.422;2023-05-10T00:21:14;0.60;;;0.40;;
5458;SDS011;2752;49.992;8.422;2023-05-10T00:23:41;0.70;;;0.53;;
5458;SDS011;2752;49.992;8.422;2023-05-10T00:26:09;0.50;;;0.40;;
5458;SDS011;2752;49.992;8.422;2023-05-10T00:28:36;1.23;;;0.43;;
5458;SDS011;2752;49.992;8.422;2023-05-10T00:31:03;0.83;;;0.60;;
5458;SDS011;2752;49.992;8.422;2023-05-10T00:33:29;1.13;;;0.60;;
5458;SDS011;2752;49.992;8.422;2023-05-10T00:35:56;1.13;;;0.60;;
5458;SDS011;2752;49.992;8.422;2023-05-10T00:38:23;0.50;;;0.50;;
5458;SDS011;2752;49.992;8.422;2023-05-10T00:40:49;1.13;;;1.03;;
5458;SDS011;2752;49.992;8.422;2023-05-10T00:43:17;0.60;;;0.50;;
5458;SDS011;2752;49.992;8.422;2023-05-10T00:45:44;1.47;;;0.60;;
5458;SDS011;2752;49.992;8.422;2023-05-10T00:48:11;0.90;;;0.50;;
5458;SDS011;2752;49.992;8.422;2023-05-10T00:50:38;0.70;;;0.53;;
5458;SDS011;2752;49.992;8.422;2023-05-10T00:53:05;0.70;;;0.60;;
5458;SDS011;2752;49.992;8.422;2023-05-10T00:55:32;1.27;;;0.60;;
5458;SDS011;2752;49.992;8.422;2023-05-10T00:57:59;0.50;;;0.40;;
5458;SDS011;2752;49.992;8.422;2023-05-10T01:00:27;0.60;;;0.50;;
5458;SDS011;2752;49.992;8.422;2023-05-10T01:02:54;1.07;;;0.50;;
5458;SDS011;2752;49.992;8.422;2023-05-10T01:05:21;0.80;;;0.60;;
5458;SDS011;2752;49.992;8.422;2023-05-10T01:07:48;0.70;;;0.40;;
5458;SDS011;2752;49.992;8.422;2023-05-10T01:10:14;1.33;;;0.50;;
5458;SDS011;2752;49.992;8.422;2023-05-10T01:12:42;0.77;;;0.53;;
5458;SDS011;2752;49.992;8.422;2023-05-10T01:15:11;1.20;;;0.70;;
5458;SDS011;2752;49.992;8.422;2023-05-10T01:17:40;0.60;;;0.50;;
5458;SDS011;2752;49.992;8.422;2023-05-10T01:20:09;0.70;;;0.60;;
5458;SDS011;2752;49.992;8.422;2023-05-10T01:22:42;0.73;;;0.60;;
5458;SDS011;2752;49.992;8.422;2023-05-10T01:28:39;0.80;;;0.73;;
5458;SDS011;2752;49.992;8.422;2023-05-10T01:31:30;0.60;;;0.50;;
5458;SDS011;2752;49.992;8.422;2023-05-10T01:34:19;1.47;;;0.50;;
5458;SDS011;2752;49.992;8.422;2023-05-10T01:36:52;0.53;;;0.50;;
5458;SDS011;2752;49.992;8.422;2023-05-10T01:39:24;2.17;;;0.60;;
5458;SDS011;2752;49.992;8.422;2023-05-10T01:41:57;0.83;;;0.60;;
5458;SDS011;2752;49.992;8.422;2023-05-10T01:44:31;0.70;;;0.70;;
5458;SDS011;2752;49.992;8.422;2023-05-10T01:47:05;0.60;;;0.50;;
5458;SDS011;2752;49.992;8.422;2023-05-10T01:49:37;0.60;;;0.50;;
5458;SDS011;2752;49.992;8.422;2023-05-10T01:52:08;0.70;;;0.60;;
5458;SDS011;2752;49.992;8.422;2023-05-10T01:54:38;0.67;;;0.60;;
5458;SDS011;2752;49.992;8.422;2023-05-10T01:57:07;0.60;;;0.50;;
5458;SDS011;2752;49.992;8.422;2023-05-10T01:59:37;0.80;;;0.50;;
5458;SDS011;2752;49.992;8.422;2023-05-10T02:02:07;1.00;;;0.70;;
5458;SDS011;2752;49.992;8.422;2023-05-10T02:04:36;0.60;;;0.60;;
5458;SDS011;2752;49.992;8.422;2023-05-10T02:07:04;0.67;;;0.53;;
5458;SDS011;2752;49.992;8.422;2023-05-10T02:09:32;0.70;;;0.70;;
5458;SDS011;2752;49.992;8.422;2023-05-10T02:12:01;0.63;;;0.60;;
5458;SDS011;2752;49.992;8.422;2023-05-10T02:14:30;0.60;;;0.60;;
5458;SDS011;2752;49.992;8.422;2023-05-10T02:17:00;0.90;;;0.60;;
5458;SDS011;2752;49.992;8.422;2023-05-10T02:19:29;0.90;;;0.60;;
5458;SDS011;2752;49.992;8.422;2023-05-10T02:21:57;0.50;;;0.50;;
5458;SDS011;2752;49.992;8.422;2023-05-10T02:24:25;0.57;;;0.57;;
5458;SDS011;2752;49.992;8.422;2023-05-10T02:26:54;2.20;;;0.70;;
5458;SDS011;2752;49.992;8.422;2023-05-10T02:29:22;0.90;;;0.63;;
5458;SDS011;2752;49.992;8.422;2023-05-10T02:31:51;0.70;;;0.70;;
5458;SDS011;2752;49.992;8.422;2023-05-10T02:34:19;0.57;;;0.50;;
5458;SDS011;2752;49.992;8.422;2023-05-10T02:36:49;0.80;;;0.53;;
5458;SDS011;2752;49.992;8.422;2023-05-10T02:39:18;0.57;;;0.50;;
5458;SDS011;2752;49.992;8.422;2023-05-10T02:41:46;0.53;;;0.50;;
5458;SDS011;2752;49.992;8.422;2023-05-10T02:44:17;1.27;;;0.90;;
5458;SDS011;2752;49.992;8.422;2023-05-10T02:46:45;0.73;;;0.60;;
5458;SDS011;2752;49.992;8.422;2023-05-10T02:49:12;0.53;;;0.50;;
5458;SDS011;2752;49.992;8.422;2023-05-10T02:51:40;0.60;;;0.60;;
5458;SDS011;2752;49.992;8.422;2023-05-10T02:54:13;0.60;;;0.60;;
5458;SDS011;2752;49.992;8.422;2023-05-10T02:56:47;0.70;;;0.50;;
5458;SDS011;2752;49.992;8.422;2023-05-10T02:59:16;2.70;;;0.70;;
5458;SDS011;2752;49.992;8.422;2023-05-10T03:01:43;0.60;;;0.60;;
5458;SDS011;2752;49.992;8.422;2023-05-10T03:04:09;0.50;;;0.47;;
5458;SDS011;2752;49.992;8.422;2023-05-10T03:06:36;0.60;;;0.50;;
5458;SDS011;2752;49.992;8.422;2023-05-10T03:09:03;0.60;;;0.60;;
5458;SDS011;2752;49.992;8.422;2023-05-10T03:11:36;1.63;;;0.70;;
5458;SDS011;2752;49.992;8.422;2023-05-10T03:14:13;2.87;;;0.50;;
5458;SDS011;2752;49.992;8.422;2023-05-10T03:16:52;0.90;;;0.63;;
5458;SDS011;2752;49.992;8.422;2023-05-10T03:19:27;1.10;;;1.00;;
5458;SDS011;2752;49.992;8.422;2023-05-10T03:21:58;0.93;;;0.70;;
5458;SDS011;2752;49.992;8.422;2023-05-10T03:24:29;1.37;;;0.73;;
5458;SDS011;2752;49.992;8.422;2023-05-10T03:26:58;0.70;;;0.60;;
5458;SDS011;2752;49.992;8.422;2023-05-10T03:29:27;5.40;;;0.63;;
5458;SDS011;2752;49.992;8.422;2023-05-10T03:31:57;0.70;;;0.60;;
5458;SDS011;2752;49.992;8.422;2023-05-10T03:34:24;0.90;;;0.80;;
5458;SDS011;2752;49.992;8.422;2023-05-10T03:36:51;0.77;;;0.60;;
5458;SDS011;2752;49.992;8.422;2023-05-10T03:39:18;3.33;;;0.97;;
5458;SDS011;2752;49.992;8.422;2023-05-10T03:41:46;1.00;;;0.80;;
5458;SDS011;2752;49.992;8.422;2023-05-10T03:44:14;4.10;;;0.83;;
5458;SDS011;2752;49.992;8.422;2023-05-10T03:46:41;2.00;;;0.60;;
5458;SDS011;2752;49.992;8.422;2023-05-10T03:49:07;2.00;;;0.83;;
5458;SDS011;2752;49.992;8.422;2023-05-10T03:51:34;0.97;;;0.80;;
5458;SDS011;2752;49.992;8.422;2023-05-10T03:54:01;2.67;;;1.03;;
5458;SDS011;2752;49.992;8.422;2023-05-10T03:56:27;0.90;;;0.80;;
5458;SDS011;2752;49.992;8.422;2023-05-10T03:58:55;2.47;;;1.07;;
5458;SDS011;2752;49.992;8.422;2023-05-10T04:01:23;2.10;;;1.10;;
5458;SDS011;2752;49.992;8.422;2023-05-10T04:03:49;1.57;;;1.10;;
5458;SDS011;2752;49.992;8.422;2023-05-10T04:06:16;0.90;;;0.83;;
5458;SDS011;2752;49.992;8.422;2023-05-10T04:08:43;1.10;;;0.87;;
5458;SDS011;2752;49.992;8.422;2023-05-10T04:11:10;1.30;;;0.70;;
5458;SDS011;2752;49.992;8.422;2023-05-10T04:13:39;1.00;;;0.80;;
5458;SDS011;2752;49.992;8.422;2023-05-10T04:16:05;1.33;;;1.00;;
5458;SDS011;2752;49.992;8.422;2023-05-10T04:18:33;1.10;;;1.00;;
5458;SDS011;2752;49.992;8.422;2023-05-10T04:21:00;1.67;;;1.00;;
5458;SDS011;2752;49.992;8.422;2023-05-10T04:23:27;0.70;;;0.70;;
5458;SDS011;2752;49.992;8.422;2023-05-10T04:25:58;1.57;;;1.10;;
5458;SDS011;2752;49.992;8.422;2023-05-10T04:28:25;0.90;;;0.70;;
5458;SDS011;2752;49.992;8.422;2023-05-10T04:30:52;1.93;;;1.00;;
5458;SDS011;2752;49.992;8.422;2023-05-10T04:33:19;5.10;;;1.57;;
5458;SDS011;2752;49.992;8.422;2023-05-10T04:35:47;1.77;;;1.17;;
5458;SDS011;2752;49.992;8.422;2023-05-10T04:38:13;1.83;;;1.20;;
5458;SDS011;2752;49.992;8.422;2023-05-10T04:40:40;1.80;;;1.10;;
5458;SDS011;2752;49.992;8.422;2023-05-10T04:43:06;2.50;;;0.90;;
5458;SDS011;2752;49.992;8.422;2023-05-10T04:45:33;1.07;;;0.97;;
5458;SDS011;2752;49.992;8.422;2023-05-10T04:48:00;1.10;;;0.97;;
5458;SDS011;2752;49.992;8.422;2023-05-10T04:50:26;2.70;;;1.10;;
5458;SDS011;2752;49.992;8.422;2023-05-10T04:52:54;1.20;;;1.10;;
5458;SDS011;2752;49.992;8.422;2023-05-10T04:55:21;1.50;;;0.90;;
5458;SDS011;2752;49.992;8.422;2023-05-10T04:57:47;1.00;;;0.80;;
5458;SDS011;2752;49.992;8.422;2023-05-10T05:00:14;0.80;;;0.80;;
5458;SDS011;2752;49.992;8.422;2023-05-10T05:02:42;1.20;;;1.10;;
5458;SDS011;2752;49.992;8.422;2023-05-10T05:05:10;3.23;;;1.40;;
5458;SDS011;2752;49.992;8.422;2023-05-10T05:07:37;3.13;;;1.50;;
5458;SDS011;2752;49.992;8.422;2023-05-10T05:10:06;3.13;;;1.20;;
5458;SDS011;2752;49.992;8.422;2023-05-10T05:12:33;1.50;;;1.20;;
5458;SDS011;2752;49.992;8.422;2023-05-10T05:15:00;1.40;;;1.30;;
5458;SDS011;2752;49.992;8.422;2023-05-10T05:17:26;1.77;;;1.40;;
5458;SDS011;2752;49.992;8.422;2023-05-10T05:19:53;3.00;;;1.30;;
5458;SDS011;2752;49.992;8.422;2023-05-10T05:22:20;1.30;;;1.20;;
5458;SDS011;2752;49.992;8.422;2023-05-10T05:24:52;1.60;;;1.30;;
5458;SDS011;2752;49.992;8.422;2023-05-10T05:27:20;2.97;;;1.60;;
5458;SDS011;2752;49.992;8.422;2023-05-10T05:29:49;2.27;;;1.57;;
5458;SDS011;2752;49.992;8.422;2023-05-10T05:32:16;3.63;;;1.63;;
5458;SDS011;2752;49.992;8.422;2023-05-10T05:34:43;3.13;;;1.83;;
5458;SDS011;2752;49.992;8.422;2023-05-10T05:37:12;2.57;;;1.80;;
5458;SDS011;2752;49.992;8.422;2023-05-10T05:39:39;1.73;;;1.40;;
5458;SDS011;2752;49.992;8.422;2023-05-10T05:42:12;2.53;;;1.60;;
5458;SDS011;2752;49.992;8.422;2023-05-10T05:44:41;1.80;;;1.57;;
5458;SDS011;2752;49.992;8.422;2023-05-10T05:47:07;4.10;;;2.30;;
5458;SDS011;2752;49.992;8.422;2023-05-10T05:49:34;2.70;;;1.63;;
5458;SDS011;2752;49.992;8.422;2023-05-10T05:52:01;5.43;;;1.53;;
5458;SDS011;2752;49.992;8.422;2023-05-10T05:54:29;3.40;;;1.43;;
5458;SDS011;2752;49.992;8.422;2023-05-10T05:56:56;2.67;;;1.50;;
5458;SDS011;2752;49.992;8.422;2023-05-10T05:59:23;2.40;;;1.80;;
5458;SDS011;2752;49.992;8.422;2023-05-10T06:01:51;1.60;;;1.17;;
5458;SDS011;2752;49.992;8.422;2023-05-10T06:04:18;6.10;;;1.40;;
5458;SDS011;2752;49.992;8.422;2023-05-10T06:06:45;2.53;;;1.47;;
5458;SDS011;2752;49.992;8.422;2023-05-10T06:09:12;1.80;;;1.53;;
5458;SDS011;2752;49.992;8.422;2023-05-10T06:11:39;2.57;;;1.50;;
5458;SDS011;2752;49.992;8.422;2023-05-10T06:14:05;2.50;;;1.40;;
5458;SDS011;2752;49.992;8.422;2023-05-10T06:16:32;11.93;;;1.77;;
5458;SDS011;2752;49.992;8.422;2023-05-10T06:19:01;3.50;;;2.07;;
5458;SDS011;2752;49.992;8.422;2023-05-10T06:21:27;4.47;;;2.10;;
5458;SDS011;2752;49.992;8.422;2023-05-10T06:23:54;1.67;;;1.40;;
5458;SDS011;2752;49.992;8.422;2023-05-10T06:26:21;2.60;;;1.30;;
5458;SDS011;2752;49.992;8.422;2023-05-10T06:28:48;7.70;;;1.33;;
5458;SDS011;2752;49.992;8.422;2023-05-10T06:31:14;4.20;;;1.83;;
5458;SDS011;2752;49.992;8.422;2023-05-10T06:33:41;5.20;;;1.47;;
5458;SDS011;2752;49.992;8.422;2023-05-10T06:36:09;2.40;;;1.53;;
5458;SDS011;2752;49.992;8.422;2023-05-10T06:38:36;3.37;;;1.30;;
5458;SDS011;2752;49.992;8.422;2023-05-10T06:41:02;2.83;;;1.80;;
5458;SDS011;2752;49.992;8.422;2023-05-10T06:43:29;2.60;;;1.63;;
5458;SDS011;2752;49.992;8.422;2023-05-10T06:45:56;1.93;;;1.53;;
5458;SDS011;2752;49.992;8.422;2023-05-10T06:48:23;1.60;;;1.50;;
5458;SDS011;2752;49.992;8.422;2023-05-10T06:50:50;2.20;;;1.50;;
5458;SDS011;2752;49.992;8.422;2023-05-10T06:53:18;1.70;;;1.47;;
5458;SDS011;2752;49.992;8.422;2023-05-10T06:55:44;1.60;;;1.17;;
5458;SDS011;2752;49.992;8.422;2023-05-10T06:58:11;2.87;;;1.70;;
5458;SDS011;2752;49.992;8.422;2023-05-10T07:00:38;3.00;;;1.43;;
5458;SDS011;2752;49.992;8.422;2023-05-10T07:03:05;1.40;;;1.30;;
5458;SDS011;2752;49.992;8.422;2023-05-10T07:05:32;3.83;;;1.53;;
5458;SDS011;2752;49.992;8.422;2023-05-10T07:07:58;2.80;;;1.50;;
5458;SDS011;2752;49.992;8.422;2023-05-10T07:10:27;2.20;;;1.47;;
5458;SDS011;2752;49.992;8.422;2023-05-10T07:12:53;3.90;;;1.17;;
5458;SDS011;2752;49.992;8.422;2023-05-10T07:15:20;4.00;;;1.83;;
5458;SDS011;2752;49.992;8.422;2023-05-10T07:17:47;2.13;;;1.47;;
5458;SDS011;2752;49.992;8.422;2023-05-10T07:20:14;3.47;;;1.80;;
5458;SDS011;2752;49.992;8.422;2023-05-10T07:22:41;1.30;;;1.10;;
5458;SDS011;2752;49.992;8.422;2023-05-10T07:25:07;4.10;;;1.87;;
5458;SDS011;2752;49.992;8.422;2023-05-10T07:27:36;15.73;;;1.60;;
5458;SDS011;2752;49.992;8.422;2023-05-10T07:30:02;2.60;;;1.63;;
5458;SDS011;2752;49.992;8.422;2023-05-10T07:32:30;2.30;;;1.10;;
5458;SDS011;2752;49.992;8.422;2023-05-10T07:34:56;2.40;;;1.50;;
5458;SDS011;2752;49.992;8.422;2023-05-10T07:37:23;3.53;;;1.93;;
5458;SDS011;2752;49.992;8.422;2023-05-10T07:39:49;6.17;;;2.30;;
5458;SDS011;2752;49.992;8.422;2023-05-10T07:42:16;2.10;;;1.43;;
5458;SDS011;2752;49.992;8.422;2023-05-10T07:44:44;3.23;;;1.60;;
5458;SDS011;2752;49.992;8.422;2023-05-10T07:47:11;2.83;;;1.70;;
5458;SDS011;2752;49.992;8.422;2023-05-10T07:49:37;3.43;;;1.50;;
5458;SDS011;2752;49.992;8.422;2023-05-10T07:52:04;3.33;;;1.50;;
5458;SDS011;2752;49.992;8.422;2023-05-10T07:54:31;1.53;;;1.20;;
5458;SDS011;2752;49.992;8.422;2023-05-10T07:56:59;1.70;;;1.00;;
5458;SDS011;2752;49.992;8.422;2023-05-10T07:59:26;2.30;;;1.40;;
5458;SDS011;2752;49.992;8.422;2023-05-10T08:01:54;8.20;;;1.57;;
5458;SDS011;2752;49.992;8.422;2023-05-10T08:04:21;3.13;;;1.47;;
5458;SDS011;2752;49.992;8.422;2023-05-10T08:06:47;3.80;;;1.33;;
5458;SDS011;2752;49.992;8.422;2023-05-10T08:09:14;1.87;;;1.17;;
5458;SDS011;2752;49.992;8.422;2023-05-10T08:11:42;3.50;;;1.27;;
5458;SDS011;2752;49.992;8.422;2023-05-10T08:14:09;4.10;;;1.20;;
5458;SDS011;2752;49.992;8.422;2023-05-10T08:16:36;1.43;;;1.17;;
5458;SDS011;2752;49.992;8.422;2023-05-10T08:19:04;1.20;;;0.90;;
5458;SDS011;2752;49.992;8.422;2023-05-10T08:21:30;1.20;;;1.10;;
5458;SDS011;2752;49.992;8.422;2023-05-10T08:23:57;1.10;;;1.00;;
5458;SDS011;2752;49.992;8.422;2023-05-10T08:26:24;4.87;;;1.00;;
5458;SDS011;2752;49.992;8.422;2023-05-10T08:28:51;1.17;;;1.00;;
5458;SDS011;2752;49.992;8.422;2023-05-10T08:31:17;2.70;;;1.77;;
5458;SDS011;2752;49.992;8.422;2023-05-10T08:33:44;1.67;;;1.20;;
5458;SDS011;2752;49.992;8.422;2023-05-10T08:36:12;1.23;;;1.07;;
5458;SDS011;2752;49.992;8.422;2023-05-10T08:38:44;1.10;;;1.00;;
5458;SDS011;2752;49.992;8.422;2023-05-10T08:41:11;4.03;;;1.10;;
5458;SDS011;2752;49.992;8.422;2023-05-10T08:43:38;1.00;;;0.80;;
5458;SDS011;2752;49.992;8.422;2023-05-10T08:46:06;1.97;;;1.20;;
5458;SDS011;2752;49.992;8.422;2023-05-10T08:48:35;1.77;;;1.43;;
5458;SDS011;2752;49.992;8.422;2023-05-10T08:51:03;4.73;;;1.17;;
5458;SDS011;2752;49.992;8.422;2023-05-10T08:53:32;1.83;;;1.20;;
5458;SDS011;2752;49.992;8.422;2023-05-10T08:56:02;1.67;;;1.10;;
5458;SDS011;2752;49.992;8.422;2023-05-10T08:58:30;1.87;;;1.13;;
5458;SDS011;2752;49.992;8.422;2023-05-10T09:00:57;4.70;;;0.90;;
5458;SDS011;2752;49.992;8.422;2023-05-10T09:03:25;1.60;;;1.10;;
5458;SDS011;2752;49.992;8.422;2023-05-10T09:05:52;2.53;;;1.27;;
5458;SDS011;2752;49.992;8.422;2023-05-10T09:08:20;5.03;;;1.43;;
5458;SDS011;2752;49.992;8.422;2023-05-10T09:10:51;2.83;;;1.30;;
5458;SDS011;2752;49.992;8.422;2023-05-10T09:13:18;3.43;;;1.23;;
5458;SDS011;2752;49.992;8.422;2023-05-10T09:15:47;1.47;;;0.90;;
5458;SDS011;2752;49.992;8.422;2023-05-10T09:18:14;5.87;;;0.90;;
5458;SDS011;2752;49.992;8.422;2023-05-10T09:20:40;1.10;;;0.90;;
5458;SDS011;2752;49.992;8.422;2023-05-10T09:23:08;1.00;;;0.90;;
5458;SDS011;2752;49.992;8.422;2023-05-10T09:25:34;5.10;;;1.20;;
5458;SDS011;2752;49.992;8.422;2023-05-10T09:28:06;3.07;;;1.13;;
5458;SDS011;2752;49.992;8.422;2023-05-10T09:30:34;1.70;;;1.23;;
5458;SDS011;2752;49.992;8.422;2023-05-10T09:33:01;2.17;;;1.20;;
5458;SDS011;2752;49.992;8.422;2023-05-10T09:35:29;1.93;;;1.10;;
5458;SDS011;2752;49.992;8.422;2023-05-10T09:37:57;1.17;;;0.97;;
5458;SDS011;2752;49.992;8.422;2023-05-10T09:40:26;2.90;;;1.40;;
5458;SDS011;2752;49.992;8.422;2023-05-10T09:42:54;4.37;;;1.40;;
5458;SDS011;2752;49.992;8.422;2023-05-10T09:45:24;2.13;;;1.00;;
5458;SDS011;2752;49.992;8.422;2023-05-10T09:47:51;2.40;;;0.90;;
5458;SDS011;2752;49.992;8.422;2023-05-10T09:50:18;2.83;;;1.60;;
5458;SDS011;2752;49.992;8.422;2023-05-10T09:52:46;1.50;;;1.00;;
5458;SDS011;2752;49.992;8.422;2023-05-10T09:55:14;0.87;;;0.87;;
5458;SDS011;2752;49.992;8.422;2023-05-10T09:57:41;1.50;;;1.40;;
5458;SDS011;2752;49.992;8.422;2023-05-10T10:00:08;1.00;;;0.90;;
5458;SDS011;2752;49.992;8.422;2023-05-10T10:02:37;0.80;;;0.70;;
5458;SDS011;2752;49.992;8.422;2023-05-10T10:05:05;0.83;;;0.83;;
5458;SDS011;2752;49.992;8.422;2023-05-10T10:07:32;7.30;;;0.90;;
5458;SDS011;2752;49.992;8.422;2023-05-10T10:10:00;1.53;;;0.70;;
5458;SDS011;2752;49.992;8.422;2023-05-10T10:12:27;3.00;;;1.03;;
5458;SDS011;2752;49.992;8.422;2023-05-10T10:14:54;2.07;;;1.33;;
5458;SDS011;2752;49.992;8.422;2023-05-10T10:17:22;1.73;;;0.80;;
5458;SDS011;2752;49.992;8.422;2023-05-10T10:19:54;2.10;;;1.10;;
5458;SDS011;2752;49.992;8.422;2023-05-10T10:22:23;1.10;;;1.00;;
5458;SDS011;2752;49.992;8.422;2023-05-10T10:24:50;1.07;;;0.70;;
5458;SDS011;2752;49.992;8.422;2023-05-10T10:27:19;1.30;;;0.77;;
5458;SDS011;2752;49.992;8.422;2023-05-10T10:29:53;1.23;;;0.80;;
5458;SDS011;2752;49.992;8.422;2023-05-10T10:32:30;1.00;;;0.90;;
5458;SDS011;2752;49.992;8.422;2023-05-10T10:35:05;1.23;;;0.90;;
5458;SDS011;2752;49.992;8.422;2023-05-10T10:37:43;2.13;;;0.80;;
5458;SDS011;2752;49.992;8.422;2023-05-10T10:42:53;1.17;;;0.70;;
5458;SDS011;2752;49.992;8.422;2023-05-10T10:45:21;0.67;;;0.60;;
5458;SDS011;2752;49.992;8.422;2023-05-10T10:47:48;0.60;;;0.60;;
5458;SDS011;2752;49.992;8.422;2023-05-10T10:50:20;0.60;;;0.53;;
5458;SDS011;2752;49.992;8.422;2023-05-10T10:52:47;0.80;;;0.60;;
5458;SDS011;2752;49.992;8.422;2023-05-10T10:55:17;1.43;;;0.70;;
5458;SDS011;2752;49.992;8.422;2023-05-10T10:57:48;0.90;;;0.67;;
5458;SDS011;2752;49.992;8.422;2023-05-10T11:00:20;3.17;;;0.73;;
5458;SDS011;2752;49.992;8.422;2023-05-10T11:02:49;0.93;;;0.80;;
5458;SDS011;2752;49.992;8.422;2023-05-10T11:08:10;1.47;;;0.80;;
5458;SDS011;2752;49.992;8.422;2023-05-10T11:10:38;0.83;;;0.73;;
5458;SDS011;2752;49.992;8.422;2023-05-10T11:13:06;1.73;;;0.80;;
5458;SDS011;2752;49.992;8.422;2023-05-10T11:15:34;1.10;;;0.80;;
5458;SDS011;2752;49.992;8.422;2023-05-10T11:18:16;0.77;;;0.73;;
5458;SDS011;2752;49.992;8.422;2023-05-10T11:20:46;0.87;;;0.80;;
5458;SDS011;2752;49.992;8.422;2023-05-10T11:23:16;1.03;;;0.93;;
5458;SDS011;2752;49.992;8.422;2023-05-10T11:25:44;0.60;;;0.60;;
5458;SDS011;2752;49.992;8.422;2023-05-10T11:28:12;0.87;;;0.77;;
5458;SDS011;2752;49.992;8.422;2023-05-10T11:30:39;5.33;;;0.73;;
5458;SDS011;2752;49.992;8.422;2023-05-10T11:33:06;2.20;;;0.80;;
5458;SDS011;2752;49.992;8.422;2023-05-10T11:35:37;2.80;;;0.80;;
5458;SDS011;2752;49.992;8.422;2023-05-10T11:38:06;1.50;;;0.80;;
5458;SDS011;2752;49.992;8.422;2023-05-10T11:40:33;0.70;;;0.67;;
5458;SDS011;2752;49.992;8.422;2023-05-10T11:43:00;1.10;;;0.50;;
5458;SDS011;2752;49.992;8.422;2023-05-10T11:45:27;0.70;;;0.57;;
5458;SDS011;2752;49.992;8.422;2023-05-10T11:47:54;0.60;;;0.60;;
5458;SDS011;2752;49.992;8.422;2023-05-10T11:50:21;0.60;;;0.50;;
5458;SDS011;2752;49.992;8.422;2023-05-10T11:52:50;0.60;;;0.60;;
5458;SDS011;2752;49.992;8.422;2023-05-10T11:55:18;0.70;;;0.60;;
5458;SDS011;2752;49.992;8.422;2023-05-10T11:57:45;0.60;;;0.50;;
5458;SDS011;2752;49.992;8.422;2023-05-10T12:00:12;0.97;;;0.70;;
5458;SDS011;2752;49.992;8.422;2023-05-10T12:02:39;0.60;;;0.60;;
5458;SDS011;2752;49.992;8.422;2023-05-10T12:05:06;0.60;;;0.50;;
5458;SDS011;2752;49.992;8.422;2023-05-10T12:07:34;0.77;;;0.50;;
5458;SDS011;2752;49.992;8.422;2023-05-10T12:10:07;0.90;;;0.70;;
5458;SDS011;2752;49.992;8.422;2023-05-10T12:12:37;0.70;;;0.50;;
5458;SDS011;2752;49.992;8.422;2023-05-10T12:15:07;1.00;;;0.73;;
5458;SDS011;2752;49.992;8.422;2023-05-10T12:17:37;1.27;;;0.57;;
5458;SDS011;2752;49.992;8.422;2023-05-10T12:20:14;0.97;;;0.50;;
5458;SDS011;2752;49.992;8.422;2023-05-10T12:22:43;1.63;;;0.80;;
5458;SDS011;2752;49.992;8.422;2023-05-10T12:25:15;0.70;;;0.50;;
5458;SDS011;2752;49.992;8.422;2023-05-10T12:27:48;3.07;;;0.57;;
5458;SDS011;2752;49.992;8.422;2023-05-10T12:30:20;0.80;;;0.50;;
5458;SDS011;2752;49.992;8.422;2023-05-10T12:32:47;0.60;;;0.50;;
5458;SDS011;2752;49.992;8.422;2023-05-10T12:35:14;0.70;;;0.63;;
5458;SDS011;2752;49.992;8.422;2023-05-10T12:37:41;0.60;;;0.50;;
5458;SDS011;2752;49.992;8.422;2023-05-10T12:40:09;0.60;;;0.60;;
5458;SDS011;2752;49.992;8.422;2023-05-10T12:42:37;1.73;;;0.80;;
5458;SDS011;2752;49.992;8.422;2023-05-10T12:45:07;0.70;;;0.63;;
5458;SDS011;2752;49.992;8.422;2023-05-10T12:47:35;0.60;;;0.50;;
5458;SDS011;2752;49.992;8.422;2023-05-10T12:50:01;0.83;;;0.70;;
5458;SDS011;2752;49.992;8.422;2023-05-10T12:52:29;0.83;;;0.80;;
5458;SDS011;2752;49.992;8.422;2023-05-10T12:54:57;3.03;;;0.80;;
5458;SDS011;2752;49.992;8.422;2023-05-10T12:57:23;1.33;;;0.80;;
5458;SDS011;2752;49.992;8.422;2023-05-10T12:59:50;1.20;;;0.80;;
5458;SDS011;2752;49.992;8.422;2023-05-10T13:02:18;1.13;;;0.70;;
5458;SDS011;2752;49.992;8.422;2023-05-10T13:04:46;1.07;;;0.60;;
5458;SDS011;2752;49.992;8.422;2023-05-10T13:07:12;1.40;;;1.10;;
5458;SDS011;2752;49.992;8.422;2023-05-10T13:09:39;0.70;;;0.50;;
5458;SDS011;2752;49.992;8.422;2023-05-10T13:12:06;0.77;;;0.63;;
5458;SDS011;2752;49.992;8.422;2023-05-10T13:14:33;1.90;;;0.70;;
5458;SDS011;2752;49.992;8.422;2023-05-10T13:16:59;1.30;;;0.80;;
5458;SDS011;2752;49.992;8.422;2023-05-10T13:19:27;2.83;;;0.90;;
5458;SDS011;2752;49.992;8.422;2023-05-10T13:21:54;1.33;;;0.70;;
5458;SDS011;2752;49.992;8.422;2023-05-10T13:24:21;1.03;;;0.60;;
5458;SDS011;2752;49.992;8.422;2023-05-10T13:26:47;1.63;;;0.83;;
5458;SDS011;2752;49.992;8.422;2023-05-10T13:29:14;2.00;;;0.83;;
5458;SDS011;2752;49.992;8.422;2023-05-10T13:31:43;0.77;;;0.77;;
5458;SDS011;2752;49.992;8.422;2023-05-10T13:34:09;0.70;;;0.70;;
5458;SDS011;2752;49.992;8.422;2023-05-10T13:36:37;3.50;;;1.00;;
5458;SDS011;2752;49.992;8.422;2023-05-10T13:39:04;1.37;;;1.00;;
5458;SDS011;2752;49.992;8.422;2023-05-10T13:41:31;1.90;;;1.00;;
5458;SDS011;2752;49.992;8.422;2023-05-10T13:43:58;1.20;;;0.80;;
5458;SDS011;2752;49.992;8.422;2023-05-10T13:46:24;3.93;;;1.13;;
5458;SDS011;2752;49.992;8.422;2023-05-10T13:48:51;1.53;;;0.70;;
5458;SDS011;2752;49.992;8.422;2023-05-10T13:51:18;0.70;;;0.70;;
5458;SDS011;2752;49.992;8.422;2023-05-10T13:53:46;1.13;;;0.67;;
5458;SDS011;2752;49.992;8.422;2023-05-10T13:56:13;5.87;;;0.70;;
5458;SDS011;2752;49.992;8.422;2023-05-10T13:58:39;2.00;;;1.00;;
5458;SDS011;2752;49.992;8.422;2023-05-10T14:01:06;0.77;;;0.60;;
5458;SDS011;2752;49.992;8.422;2023-05-10T14:03:33;1.20;;;0.90;;
5458;SDS011;2752;49.992;8.422;2023-05-10T14:06:00;0.63;;;0.50;;
5458;SDS011;2752;49.992;8.422;2023-05-10T14:08:26;0.90;;;0.70;;
5458;SDS011;2752;49.992;8.422;2023-05-10T14:10:54;0.60;;;0.60;;
5458;SDS011;2752;49.992;8.422;2023-05-10T14:13:22;1.10;;;0.73;;
5458;SDS011;2752;49.992;8.422;2023-05-10T14:15:49;4.00;;;0.80;;
5458;SDS011;2752;49.992;8.422;2023-05-10T14:18:16;3.03;;;0.57;;
5458;SDS011;2752;49.992;8.422;2023-05-10T14:20:43;5.93;;;0.83;;
5458;SDS011;2752;49.992;8.422;2023-05-10T14:23:09;1.57;;;0.90;;
5458;SDS011;2752;49.992;8.422;2023-05-10T14:25:36;1.27;;;0.60;;
5458;SDS011;2752;49.992;8.422;2023-05-10T14:28:05;0.90;;;0.60;;
5458;SDS011;2752;49.992;8.422;2023-05-10T14:30:32;1.83;;;0.67;;
5458;SDS011;2752;49.992;8.422;2023-05-10T14:32:59;2.00;;;0.70;;
5458;SDS011;2752;49.992;8.422;2023-05-10T14:35:26;1.10;;;0.90;;
5458;SDS011;2752;49.992;8.422;2023-05-10T14:37:52;1.67;;;0.70;;
5458;SDS011;2752;49.992;8.422;2023-05-10T14:40:20;2.30;;;0.73;;
5458;SDS011;2752;49.992;8.422;2023-05-10T14:42:46;1.37;;;0.70;;
5458;SDS011;2752;49.992;8.422;2023-05-10T14:45:14;2.23;;;0.70;;
5458;SDS011;2752;49.992;8.422;2023-05-10T14:47:41;0.70;;;0.63;;
5458;SDS011;2752;49.992;8.422;2023-05-10T14:50:08;1.20;;;0.70;;
5458;SDS011;2752;49.992;8.422;2023-05-10T14:52:34;1.43;;;1.10;;
5458;SDS011;2752;49.992;8.422;2023-05-10T14:55:01;1.90;;;0.67;;
5458;SDS011;2752;49.992;8.422;2023-05-10T14:57:28;2.17;;;0.90;;
5458;SDS011;2752;49.992;8.422;2023-05-10T14:59:55;4.40;;;1.43;;
5458;SDS011;2752;49.992;8.422;2023-05-10T15:02:23;0.70;;;0.60;;
5458;SDS011;2752;49.992;8.422;2023-05-10T15:04:50;0.90;;;0.60;;
5458;SDS011;2752;49.992;8.422;2023-05-10T15:07:16;1.30;;;0.93;;
5458;SDS011;2752;49.992;8.422;2023-05-10T15:09:43;2.30;;;0.77;;
5458;SDS011;2752;49.992;8.422;2023-05-10T15:12:10;1.20;;;0.80;;
5458;SDS011;2752;49.992;8.422;2023-05-10T15:14:36;1.67;;;0.90;;
5458;SDS011;2752;49.992;8.422;2023-05-10T15:17:05;0.97;;;0.70;;
5458;SDS011;2752;49.992;8.422;2023-05-10T15:19:34;9.53;;;0.80;;
5458;SDS011;2752;49.992;8.422;2023-05-10T15:22:00;2.90;;;0.80;;
5458;SDS011;2752;49.992;8.422;2023-05-10T15:24:27;1.20;;;0.80;;
5458;SDS011;2752;49.992;8.422;2023-05-10T15:26:54;1.30;;;0.80;;
5458;SDS011;2752;49.992;8.422;2023-05-10T15:29:21;0.83;;;0.70;;